createdAt,value
2023-04-21T00:00:55.994Z,10.02
2023-04-21T00:03:24.129Z,10.11
2023-04-21T00:05:51.248Z,10.08
2023-04-21T00:08:18.743Z,9.94
2023-04-21T00:10:46.630Z,9.99
2023-04-21T00:13:13.487Z,10.11
2023-04-21T00:15:40.026Z,10.15
2023-04-21T00:18:06.553Z,10.05
2023-04-21T00:20:33.133Z,9.98
2023-04-21T00:23:00.544Z,9.97
2023-04-21T00:25:27.139Z,10.20
2023-04-21T00:27:53.602Z,10.17
2023-04-21T00:30:20.098Z,10.36
2023-04-21T00:32:46.607Z,10.26
2023-04-21T00:35:13.151Z,10.28
2023-04-21T00:37:40.760Z,10.23
2023-04-21T00:40:08.534Z,10.40
2023-04-21T00:42:34.996Z,10.32
2023-04-21T00:45:01.646Z,10.31
2023-04-21T00:47:28.141Z,10.24
2023-04-21T00:49:54.942Z,10.06
2023-04-21T00:52:21.706Z,10.07
2023-04-21T00:54:48.315Z,9.92
2023-04-21T00:57:14.866Z,10.05
2023-04-21T00:59:41.894Z,10.06
2023-04-21T01:02:08.391Z,9.88
2023-04-21T01:04:39.567Z,9.97
2023-04-21T01:07:07.731Z,9.83
2023-04-21T01:09:34.613Z,9.88
2023-04-21T01:12:05.733Z,9.94
2023-04-21T01:14:32.214Z,9.80
2023-04-21T01:16:59.234Z,9.93
2023-04-21T01:19:28.588Z,9.94
2023-04-21T01:21:57.586Z,9.78
2023-04-21T01:24:27.316Z,9.82
2023-04-21T01:26:53.750Z,9.90
2023-04-21T01:29:20.389Z,9.97
2023-04-21T01:31:48.176Z,9.87
2023-04-21T01:34:14.711Z,9.90
2023-04-21T01:36:41.218Z,9.90
2023-04-21T01:39:07.700Z,9.94
2023-04-21T01:41:34.234Z,9.96
2023-04-21T01:44:01.055Z,9.92
2023-04-21T01:46:27.951Z,9.84
2023-04-21T01:48:54.612Z,9.80
2023-04-21T01:51:21.201Z,9.75
2023-04-21T01:53:47.591Z,9.70
2023-04-21T01:56:15.372Z,9.82
2023-04-21T01:58:41.769Z,9.73
2023-04-21T02:01:08.233Z,9.70
2023-04-21T02:03:35.103Z,9.43
2023-04-21T02:06:01.605Z,9.60
2023-04-21T02:08:28.021Z,9.39
2023-04-21T02:10:54.446Z,9.29
2023-04-21T02:13:20.850Z,9.25
2023-04-21T02:15:47.273Z,9.49
2023-04-21T02:18:14.890Z,9.51
2023-04-21T02:20:41.409Z,9.49
2023-04-21T02:23:07.807Z,9.22
2023-04-21T02:25:34.259Z,9.54
2023-04-21T02:28:00.677Z,9.23
2023-04-21T02:30:27.600Z,9.36
2023-04-21T02:32:54.278Z,9.32
2023-04-21T02:35:20.907Z,9.45
2023-04-21T02:37:47.311Z,9.33
2023-04-21T02:40:13.889Z,9.33
2023-04-21T02:42:40.344Z,9.40
2023-04-21T02:45:07.423Z,9.56
2023-04-21T02:47:33.881Z,9.67
2023-04-21T02:50:00.564Z,9.69
2023-04-21T02:52:27.858Z,9.69
2023-04-21T02:54:54.296Z,9.83
2023-04-21T02:57:20.727Z,9.56
2023-04-21T02:59:47.188Z,9.66
2023-04-21T03:02:13.744Z,9.63
2023-04-21T03:04:40.310Z,9.76
2023-04-21T03:07:12.659Z,9.31
2023-04-21T03:09:39.755Z,9.62
2023-04-21T03:12:06.444Z,9.60
2023-04-21T03:14:32.933Z,9.74
2023-04-21T03:16:59.578Z,9.68
2023-04-21T03:19:26.077Z,9.65
2023-04-21T03:21:52.464Z,9.33
2023-04-21T03:24:19.464Z,9.34
2023-04-21T03:26:45.881Z,9.46
2023-04-21T03:29:12.257Z,9.49
2023-04-21T03:31:38.709Z,9.47
2023-04-21T03:34:05.207Z,9.51
2023-04-21T03:36:31.833Z,9.30
2023-04-21T03:39:05.899Z,9.52
2023-04-21T03:41:39.494Z,9.49
2023-04-21T03:44:05.929Z,9.32
2023-04-21T03:46:32.404Z,9.37
2023-04-21T03:48:58.915Z,9.25
2023-04-21T03:51:25.361Z,9.12
2023-04-21T03:53:51.753Z,9.23
2023-04-21T03:56:18.187Z,9.26
2023-04-21T03:58:44.687Z,9.07
2023-04-21T04:01:11.090Z,9.28
2023-04-21T04:03:37.701Z,9.28
2023-04-21T04:06:04.474Z,9.22
2023-04-21T04:08:31.373Z,9.13
2023-04-21T04:10:57.858Z,8.70
2023-04-21T04:13:26.317Z,8.81
2023-04-21T04:15:53.112Z,9.12
2023-04-21T04:18:19.624Z,9.18
2023-04-21T04:20:46.054Z,9.18
2023-04-21T04:23:12.445Z,9.01
2023-04-21T04:25:39.167Z,8.93
2023-04-21T04:28:07.317Z,8.84
2023-04-21T04:30:35.188Z,8.98
2023-04-21T04:33:02.028Z,8.78
2023-04-21T04:35:28.494Z,9.01
2023-04-21T04:37:56.836Z,9.01
2023-04-21T04:40:23.493Z,8.86
2023-04-21T04:42:49.957Z,9.22
2023-04-21T04:45:16.617Z,9.14
2023-04-21T04:47:43.595Z,9.17
2023-04-21T04:50:10.232Z,9.28
2023-04-21T04:52:36.682Z,9.23
2023-04-21T04:55:04.079Z,9.21
2023-04-21T04:57:31.073Z,9.27
2023-04-21T04:59:57.687Z,9.28
2023-04-21T05:02:24.669Z,9.35
2023-04-21T05:04:51.454Z,9.21
2023-04-21T05:07:17.941Z,9.33
2023-04-21T05:09:44.364Z,9.42
2023-04-21T05:12:11.233Z,9.22
2023-04-21T05:14:37.618Z,9.37
2023-04-21T05:17:04.134Z,9.53
2023-04-21T05:19:30.756Z,9.59
2023-04-21T05:22:03.124Z,9.75
2023-04-21T05:24:29.630Z,9.81
2023-04-21T05:26:56.131Z,10.18
2023-04-21T05:29:22.552Z,10.01
2023-04-21T05:31:48.981Z,10.03
2023-04-21T05:34:15.456Z,10.08
2023-04-21T05:36:42.728Z,10.25
2023-04-21T05:39:09.447Z,10.27
2023-04-21T05:41:36.221Z,10.16
2023-04-21T05:44:02.713Z,10.22
2023-04-21T05:46:30.208Z,10.48
2023-04-21T05:48:56.738Z,10.37
2023-04-21T05:51:23.107Z,10.54
2023-04-21T05:53:49.504Z,10.64
2023-04-21T05:56:16.015Z,10.52
2023-04-21T05:58:42.402Z,10.84
2023-04-21T06:01:08.923Z,10.72
2023-04-21T06:03:35.963Z,10.92
2023-04-21T06:06:04.563Z,10.96
2023-04-21T06:08:31.290Z,11.09
2023-04-21T06:10:58.075Z,11.01
2023-04-21T06:13:24.776Z,11.11
2023-04-21T06:15:51.170Z,11.10
2023-04-21T06:18:17.647Z,10.96
2023-04-21T06:20:50.894Z,11.30
2023-04-21T06:23:17.540Z,11.49
2023-04-21T06:25:43.946Z,11.47
2023-04-21T06:28:10.495Z,11.42
2023-04-21T06:30:36.941Z,11.29
2023-04-21T06:33:04.460Z,11.52
2023-04-21T06:35:31.008Z,11.53
2023-04-21T06:37:57.407Z,11.57
2023-04-21T06:40:23.830Z,11.70
2023-04-21T06:42:50.236Z,11.98
2023-04-21T06:45:16.670Z,11.85
2023-04-21T06:47:43.074Z,11.82
2023-04-21T06:50:10.001Z,11.86
2023-04-21T06:52:36.460Z,12.16
2023-04-21T06:55:02.964Z,12.16
2023-04-21T06:57:29.392Z,12.24
2023-04-21T06:59:55.829Z,11.88
2023-04-21T07:02:22.300Z,12.17
2023-04-21T07:04:48.822Z,12.43
2023-04-21T07:07:15.558Z,12.44
2023-04-21T07:09:42.057Z,12.35
2023-04-21T07:12:08.520Z,12.44
2023-04-21T07:14:34.979Z,12.53
2023-04-21T07:17:01.418Z,12.62
2023-04-21T07:19:28.260Z,12.79
2023-04-21T07:21:54.688Z,12.67
2023-04-21T07:24:21.198Z,12.72
2023-04-21T07:26:47.637Z,13.17
2023-04-21T07:29:14.065Z,13.33
2023-04-21T07:31:40.662Z,13.48
2023-04-21T07:34:07.339Z,13.76
2023-04-21T07:36:33.863Z,14.03
2023-04-21T07:39:00.610Z,13.71
2023-04-21T07:41:29.221Z,14.08
2023-04-21T07:43:55.704Z,14.41
2023-04-21T07:46:24.271Z,14.54
2023-04-21T07:48:50.833Z,14.68
2023-04-21T07:51:17.958Z,14.63
2023-04-21T07:53:44.498Z,14.84
2023-04-21T07:56:12.943Z,14.80
2023-04-21T07:58:39.439Z,14.94
2023-04-21T08:01:05.919Z,14.85
2023-04-21T08:03:32.586Z,14.98
2023-04-21T08:05:59.394Z,14.91
2023-04-21T08:08:26.161Z,15.01
2023-04-21T08:10:53.442Z,14.85
2023-04-21T08:13:21.519Z,14.47
2023-04-21T08:15:47.938Z,14.87
2023-04-21T08:18:17.441Z,14.83
2023-04-21T08:20:47.819Z,14.73
2023-04-21T08:23:15.389Z,14.58
2023-04-21T08:25:41.982Z,14.68
2023-04-21T08:28:08.458Z,14.88
2023-04-21T08:30:34.887Z,14.75
2023-04-21T08:33:01.309Z,14.71
2023-04-21T08:35:27.847Z,15.01
2023-04-21T08:37:54.271Z,15.16
2023-04-21T08:40:20.710Z,15.07
2023-04-21T08:42:48.475Z,15.08
2023-04-21T08:45:15.091Z,15.14
2023-04-21T08:47:42.073Z,15.16
2023-04-21T08:50:13.229Z,14.73
2023-04-21T08:52:39.628Z,14.95
2023-04-21T08:55:07.477Z,15.00
2023-04-21T08:57:34.255Z,15.17
2023-04-21T09:00:01.031Z,15.15
2023-04-21T09:02:27.627Z,15.16
2023-04-21T09:04:55.824Z,14.89
2023-04-21T09:07:37.169Z,15.36
2023-04-21T09:10:05.180Z,15.16
2023-04-21T09:12:32.021Z,15.06
2023-04-21T09:14:58.637Z,15.10
2023-04-21T09:17:33.941Z,15.05
2023-04-21T09:20:14.201Z,15.25
2023-04-21T09:22:40.758Z,14.98
2023-04-21T09:25:07.531Z,15.23
2023-04-21T09:27:37.516Z,15.10
2023-04-21T09:30:07.165Z,15.40
2023-04-21T09:32:38.980Z,15.91
2023-04-21T09:35:09.453Z,16.12
2023-04-21T09:37:36.026Z,16.50
2023-04-21T09:40:04.709Z,16.65
2023-04-21T09:42:38.124Z,16.89
2023-04-21T09:47:42.532Z,17.25
2023-04-21T09:50:13.290Z,17.24
2023-04-21T09:52:42.859Z,17.15
2023-04-21T09:55:13.062Z,17.33
2023-04-21T09:57:42.167Z,17.33
2023-04-21T10:00:12.107Z,17.53
2023-04-21T10:02:44.224Z,17.66
2023-04-21T10:05:11.988Z,17.74
2023-04-21T10:07:38.713Z,17.83
2023-04-21T10:10:09.066Z,17.84
2023-04-21T10:12:35.568Z,17.84
2023-04-21T10:15:05.295Z,18.22
2023-04-21T10:17:36.884Z,18.25
2023-04-21T10:20:06.776Z,18.23
2023-04-21T10:22:34.770Z,18.45
2023-04-21T10:25:03.346Z,18.37
2023-04-21T10:27:36.846Z,18.25
2023-04-21T10:30:32.740Z,18.29
2023-04-21T10:33:03.785Z,18.23
2023-04-21T10:35:53.680Z,18.08
2023-04-21T10:38:42.763Z,17.94
2023-04-21T10:41:29.281Z,18.00
2023-04-21T10:43:59.763Z,17.93
2023-04-21T10:46:34.095Z,17.69
2023-04-21T10:49:12.173Z,18.01
2023-04-21T10:52:00.684Z,17.83
2023-04-21T10:54:31.476Z,17.84
2023-04-21T10:56:59.239Z,17.78
2023-04-21T10:59:27.072Z,17.72
2023-04-21T11:01:54.578Z,17.58
2023-04-21T11:04:58.221Z,17.45
2023-04-21T11:07:25.591Z,17.29
2023-04-21T11:10:02.036Z,17.51
2023-04-21T11:12:33.974Z,17.44
2023-04-21T11:15:05.020Z,17.68
2023-04-21T11:17:31.861Z,17.18
2023-04-21T11:19:58.486Z,17.65
2023-04-21T11:22:26.388Z,17.60
2023-04-21T11:24:57.792Z,17.95
2023-04-21T11:27:27.060Z,18.20
2023-04-21T11:29:53.588Z,18.41
2023-04-21T11:32:21.219Z,18.48
2023-04-21T11:34:47.888Z,18.61
2023-04-21T11:37:17.189Z,18.74
2023-04-21T11:39:44.387Z,18.82
2023-04-21T11:42:11.858Z,18.92
2023-04-21T11:44:38.282Z,18.80
2023-04-21T11:47:25.248Z,19.01
2023-04-21T11:49:54.635Z,19.01
2023-04-21T11:52:21.798Z,19.15
2023-04-21T11:54:48.718Z,18.86
2023-04-21T11:57:18.660Z,19.21
2023-04-21T11:59:46.869Z,19.34
2023-04-21T12:02:21.578Z,19.34
2023-04-21T12:04:57.774Z,19.31
2023-04-21T12:07:24.543Z,19.21
2023-04-21T12:09:53.740Z,19.26
2023-04-21T12:12:22.974Z,19.15
2023-04-21T12:14:51.580Z,19.13
2023-04-21T12:17:18.152Z,18.82
2023-04-21T12:19:44.697Z,18.87
2023-04-21T12:22:13.172Z,18.84
2023-04-21T12:24:40.451Z,18.81
2023-04-21T12:27:07.811Z,18.65
2023-04-21T12:29:38.437Z,18.73
2023-04-21T13:02:45.315Z,18.43
2023-04-21T13:05:12.757Z,18.90
2023-04-21T13:07:39.417Z,19.21
2023-04-21T13:10:06.742Z,19.32
2023-04-21T13:12:33.439Z,19.36
2023-04-21T13:14:59.927Z,19.43
2023-04-21T13:17:26.437Z,19.69
2023-04-21T13:19:52.920Z,19.63
2023-04-21T13:22:19.388Z,19.57
2023-04-21T13:24:45.857Z,19.87
2023-04-21T13:27:12.412Z,19.89
2023-04-21T13:29:38.937Z,19.89
2023-04-21T13:32:07.408Z,19.85
2023-04-21T13:34:34.312Z,20.00
2023-04-21T13:37:01.520Z,19.94
2023-04-21T13:39:28.026Z,19.69
2023-04-21T13:41:54.685Z,19.57
2023-04-21T13:44:21.576Z,19.37
2023-04-21T13:46:48.144Z,19.14
2023-04-21T13:49:14.730Z,19.25
2023-04-21T13:51:41.221Z,19.51
2023-04-21T13:54:07.695Z,19.48
2023-04-21T13:56:34.750Z,19.26
2023-04-21T13:59:01.208Z,19.16
2023-04-21T14:01:27.806Z,19.40
2023-04-21T14:04:21.024Z,19.23
2023-04-21T14:06:50.988Z,19.30
2023-04-21T14:09:17.738Z,18.90
2023-04-21T14:11:44.291Z,19.03
2023-04-21T14:14:10.791Z,19.01
2023-04-21T14:16:38.376Z,19.15
2023-04-21T14:19:05.279Z,18.99
2023-04-21T14:21:32.692Z,18.90
2023-04-21T14:23:59.312Z,18.79
2023-04-21T14:26:25.994Z,18.89
2023-04-21T14:28:52.489Z,18.70
2023-04-21T14:31:21.658Z,18.65
2023-04-21T14:33:48.552Z,18.85
2023-04-21T14:36:15.032Z,18.84
2023-04-21T14:38:42.686Z,18.80
2023-04-21T14:41:09.436Z,18.67
2023-04-21T14:43:36.472Z,18.45
2023-04-21T14:48:29.805Z,18.26
2023-04-21T14:50:59.161Z,18.45
2023-04-21T14:53:25.932Z,18.37
2023-04-21T14:55:53.041Z,18.39
2023-04-21T14:58:21.144Z,18.55
2023-04-21T15:00:47.783Z,18.66
2023-04-21T15:03:14.586Z,18.89
2023-04-21T15:05:41.201Z,18.84
2023-04-21T15:08:08.833Z,19.01
2023-04-21T15:10:35.682Z,19.17
2023-04-21T15:13:02.232Z,19.16
2023-04-21T15:15:28.773Z,19.13
2023-04-21T15:17:55.579Z,19.23
2023-04-21T15:20:32.541Z,19.10
2023-04-21T15:23:03.336Z,19.27
2023-04-21T15:25:30.271Z,19.20
2023-04-21T15:27:56.701Z,19.20
2023-04-21T15:30:23.117Z,19.17
2023-04-21T15:32:49.602Z,19.17
2023-04-21T15:35:16.120Z,19.09
2023-04-21T15:37:42.514Z,19.18
2023-04-21T15:40:09.754Z,19.07
2023-04-21T15:42:36.273Z,19.10
2023-04-21T15:45:03.987Z,18.65
2023-04-21T15:47:30.473Z,18.57
2023-04-21T15:49:56.931Z,18.73
2023-04-21T15:52:23.454Z,18.66
2023-04-21T15:54:50.495Z,18.78
2023-04-21T15:57:17.024Z,18.87
2023-04-21T15:59:43.588Z,18.75
2023-04-21T16:02:10.150Z,18.78
2023-04-21T16:07:03.805Z,18.44
2023-04-21T16:09:30.394Z,18.39
2023-04-21T16:11:57.286Z,18.59
2023-04-21T16:14:23.987Z,18.18
2023-04-21T16:16:50.713Z,18.10
2023-04-21T16:19:17.289Z,18.40
2023-04-21T16:21:43.771Z,18.51
2023-04-21T16:24:10.872Z,18.53
2023-04-21T16:26:37.365Z,18.48
2023-04-21T16:29:03.864Z,18.46
2023-04-21T16:31:31.333Z,18.03
2023-04-21T16:34:00.811Z,18.02
2023-04-21T16:36:28.473Z,18.07
2023-04-21T16:38:55.933Z,18.04
2023-04-21T16:41:22.483Z,18.00
2023-04-21T16:43:49.351Z,18.10
2023-04-21T16:46:16.120Z,18.15
2023-04-21T16:48:42.741Z,18.02
2023-04-21T16:51:09.256Z,18.08
2023-04-21T16:53:36.835Z,18.14
2023-04-21T16:56:04.671Z,17.94
2023-04-21T16:58:31.236Z,17.70
2023-04-21T17:00:57.828Z,17.93
2023-04-21T17:03:26.280Z,17.89
2023-04-21T17:05:53.702Z,17.92
2023-04-21T17:08:20.617Z,18.05
2023-04-21T17:10:47.005Z,18.02
2023-04-21T17:13:13.519Z,18.00
2023-04-21T17:15:40.862Z,18.29
2023-04-21T17:18:07.550Z,18.20
2023-04-21T17:20:34.937Z,18.06
2023-04-21T17:23:01.404Z,18.11
2023-04-21T17:25:28.097Z,17.99
2023-04-21T17:27:54.657Z,17.93
2023-04-21T17:30:23.371Z,17.92
2023-04-21T17:32:53.310Z,17.90
2023-04-21T17:35:27.272Z,17.86
2023-04-21T17:37:53.891Z,17.89
2023-04-21T17:40:20.822Z,17.82
2023-04-21T17:42:47.253Z,17.84
2023-04-21T17:45:13.680Z,17.66
2023-04-21T17:47:40.408Z,17.62
2023-04-21T17:50:09.778Z,17.56
2023-04-21T17:52:36.164Z,17.51
2023-04-21T17:55:02.667Z,17.51
2023-04-21T17:57:29.396Z,17.44
2023-04-21T17:59:56.193Z,17.32
2023-04-21T18:02:22.882Z,17.24
2023-04-21T18:04:49.552Z,17.15
2023-04-21T18:07:16.129Z,17.13
2023-04-21T18:09:43.338Z,17.07
2023-04-21T18:12:09.843Z,17.04
2023-04-21T18:14:36.823Z,16.96
2023-04-21T18:17:03.583Z,16.87
2023-04-21T18:19:30.264Z,16.77
2023-04-21T18:21:57.102Z,16.73
2023-04-21T18:24:23.697Z,16.65
2023-04-21T18:26:51.354Z,16.57
2023-04-21T18:29:19.414Z,16.40
2023-04-21T18:31:45.985Z,16.32
2023-04-21T18:34:14.418Z,16.21
2023-04-21T18:36:42.911Z,16.10
2023-04-21T18:39:13.199Z,15.85
2023-04-21T18:41:40.403Z,15.88
2023-04-21T18:44:06.903Z,15.82
2023-04-21T18:46:33.802Z,15.65
2023-04-21T18:49:00.558Z,15.33
2023-04-21T18:51:31.305Z,15.20
2023-04-21T18:53:57.857Z,15.10
2023-04-21T18:56:24.336Z,15.10
2023-04-21T18:58:51.016Z,15.04
2023-04-21T19:01:17.546Z,14.90
2023-04-21T19:07:31.534Z,14.57
2023-04-21T19:09:58.202Z,14.53
2023-04-21T19:12:24.692Z,14.40
2023-04-21T19:14:51.904Z,14.47
2023-04-21T19:17:18.513Z,14.57
2023-04-21T19:19:44.993Z,14.49
2023-04-21T19:22:11.438Z,14.71
2023-04-21T19:24:38.213Z,14.77
2023-04-21T19:27:06.156Z,14.88
2023-04-21T19:29:33.044Z,14.83
2023-04-21T19:31:59.498Z,14.84
2023-04-21T19:34:26.715Z,15.00
2023-04-21T19:36:53.665Z,14.95
2023-04-21T19:39:20.200Z,14.64
2023-04-21T19:41:46.696Z,14.68
2023-04-21T19:44:13.139Z,14.75
2023-04-21T19:46:42.525Z,14.69
2023-04-21T19:49:12.914Z,14.70
2023-04-21T19:51:40.935Z,14.58
2023-04-21T19:54:11.355Z,14.70
2023-04-21T19:56:39.571Z,14.50
2023-04-21T19:59:06.246Z,14.49
2023-04-21T20:01:36.023Z,14.48
2023-04-21T20:04:03.564Z,14.47
2023-04-21T20:06:30.469Z,14.36
2023-04-21T20:08:56.992Z,14.33
2023-04-21T20:11:23.646Z,14.36
2023-04-21T20:13:50.571Z,14.16
2023-04-21T20:16:20.061Z,14.22
2023-04-21T20:18:47.010Z,14.19
2023-04-21T20:21:14.266Z,14.21
2023-04-21T20:23:40.881Z,14.11
2023-04-21T20:26:07.287Z,14.12
2023-04-21T20:28:33.772Z,14.02
2023-04-21T20:31:00.653Z,13.96
2023-04-21T20:33:28.078Z,13.76
2023-04-21T20:35:55.155Z,13.77
2023-04-21T20:38:23.835Z,13.80
2023-04-21T20:40:52.201Z,13.76
2023-04-21T20:43:18.883Z,13.73
2023-04-21T20:45:46.965Z,13.62
2023-04-21T20:48:13.611Z,13.52
2023-04-21T20:50:40.045Z,13.50
2023-04-21T20:53:08.415Z,13.43
2023-04-21T20:55:35.429Z,13.27
2023-04-21T20:58:02.737Z,13.33
2023-04-21T21:00:31.455Z,13.34
2023-04-21T21:02:58.186Z,13.16
2023-04-21T21:05:24.802Z,13.11
2023-04-21T21:07:51.283Z,13.16
2023-04-21T21:10:18.512Z,13.03
2023-04-21T21:12:45.158Z,12.94
2023-04-21T21:15:11.820Z,12.86
2023-04-21T21:17:38.317Z,12.86
2023-04-21T21:20:05.842Z,12.76
2023-04-21T21:22:32.273Z,12.72
2023-04-21T21:24:58.769Z,12.64
2023-04-21T21:27:25.316Z,12.59
2023-04-21T21:29:51.800Z,12.60
2023-04-21T21:32:18.524Z,12.47
2023-04-21T21:34:45.558Z,12.48
2023-04-21T21:37:11.965Z,12.62
2023-04-21T21:39:38.788Z,12.45
2023-04-21T21:42:05.550Z,12.49
2023-04-21T21:44:32.111Z,12.41
2023-04-21T21:46:58.738Z,12.46
2023-04-21T21:49:25.234Z,12.22
2023-04-21T21:51:52.878Z,12.20
2023-04-21T21:54:19.397Z,12.14
2023-04-21T21:56:46.269Z,12.21
2023-04-21T21:59:12.763Z,12.22
2023-04-21T22:01:39.336Z,12.16
2023-04-21T22:04:06.277Z,12.23
2023-04-21T22:06:34.660Z,12.08
2023-04-21T22:09:01.200Z,12.10
2023-04-21T22:11:27.745Z,12.11
2023-04-21T22:13:54.155Z,12.15
2023-04-21T22:16:20.636Z,12.14
2023-04-21T22:18:48.186Z,12.12
2023-04-21T22:21:15.161Z,12.14
2023-04-21T22:23:41.689Z,12.09
2023-04-21T22:26:09.228Z,12.05
2023-04-21T22:28:35.836Z,12.01
2023-04-21T22:31:02.391Z,11.89
2023-04-21T22:33:28.989Z,11.87
2023-04-21T22:35:55.603Z,11.69
2023-04-21T22:38:22.118Z,11.68
2023-04-21T22:40:48.555Z,11.57
2023-04-21T22:43:14.977Z,11.51
2023-04-21T22:45:42.918Z,11.61
2023-04-21T22:48:09.471Z,11.38
2023-04-21T22:50:35.998Z,11.42
2023-04-21T22:53:02.468Z,11.41
2023-04-21T22:55:29.026Z,11.42
2023-04-21T22:57:55.532Z,11.38
2023-04-21T23:00:21.960Z,11.29
2023-04-21T23:02:48.562Z,11.16
2023-04-21T23:05:15.690Z,11.14
2023-04-21T23:07:42.146Z,11.11
2023-04-21T23:10:08.853Z,10.98
2023-04-21T23:12:35.582Z,10.72
2023-04-21T23:15:02.065Z,10.59
2023-04-21T23:17:28.517Z,10.50
2023-04-21T23:19:55.199Z,10.45
2023-04-21T23:22:24.144Z,10.26
2023-04-21T23:24:51.864Z,10.16
2023-04-21T23:27:18.377Z,10.21
2023-04-21T23:29:44.856Z,10.07
2023-04-21T23:32:11.313Z,10.01
2023-04-21T23:34:37.777Z,9.85
2023-04-21T23:37:04.272Z,9.70
2023-04-21T23:39:30.790Z,9.56
2023-04-21T23:41:57.378Z,9.49
2023-04-21T23:44:24.028Z,9.51
2023-04-21T23:46:51.154Z,9.40
2023-04-21T23:49:17.554Z,9.31
2023-04-21T23:51:44.050Z,9.08
2023-04-21T23:54:10.485Z,9.03
2023-04-21T23:56:36.978Z,8.89
2023-04-21T23:59:03.391Z,8.86
